sensor_id;sensor_type;location;lat;lon;timestamp;P1;durP1;ratioP1;P2;durP2;ratioP2
75971;SDS011;64651;47.540;19.088;2024-02-21T00:02:09;11.87;;;4.90;;
75971;SDS011;64651;47.540;19.088;2024-02-21T00:07:12;13.40;;;4.87;;
75971;SDS011;64651;47.540;19.088;2024-02-21T00:12:14;9.47;;;3.90;;
75971;SDS011;64651;47.540;19.088;2024-02-21T00:17:16;8.90;;;3.42;;
75971;SDS011;64651;47.540;19.088;2024-02-21T00:22:18;9.43;;;3.83;;
75971;SDS011;64651;47.540;19.088;2024-02-21T00:27:21;8.23;;;3.00;;
75971;SDS011;64651;47.540;19.088;2024-02-21T00:32:23;8.38;;;3.03;;
75971;SDS011;64651;47.540;19.088;2024-02-21T00:37:25;8.47;;;3.07;;
75971;SDS011;64651;47.540;19.088;2024-02-21T00:42:27;8.57;;;2.60;;
75971;SDS011;64651;47.540;19.088;2024-02-21T00:47:29;9.55;;;2.75;;
75971;SDS011;64651;47.540;19.088;2024-02-21T00:52:32;7.07;;;2.23;;
75971;SDS011;64651;47.540;19.088;2024-02-21T00:57:34;7.18;;;2.42;;
75971;SDS011;64651;47.540;19.088;2024-02-21T01:02:36;7.73;;;2.20;;
75971;SDS011;64651;47.540;19.088;2024-02-21T01:07:38;6.80;;;1.55;;
75971;SDS011;64651;47.540;19.088;2024-02-21T01:12:41;6.12;;;1.62;;
75971;SDS011;64651;47.540;19.088;2024-02-21T01:17:43;9.03;;;1.73;;
75971;SDS011;64651;47.540;19.088;2024-02-21T01:22:45;7.50;;;1.95;;
75971;SDS011;64651;47.540;19.088;2024-02-21T01:27:48;6.13;;;1.60;;
75971;SDS011;64651;47.540;19.088;2024-02-21T01:32:50;6.70;;;1.60;;
75971;SDS011;64651;47.540;19.088;2024-02-21T01:37:52;5.60;;;1.30;;
75971;SDS011;64651;47.540;19.088;2024-02-21T01:42:55;6.13;;;1.60;;
75971;SDS011;64651;47.540;19.088;2024-02-21T01:47:57;6.93;;;1.42;;
75971;SDS011;64651;47.540;19.088;2024-02-21T01:53:00;7.97;;;1.90;;
75971;SDS011;64651;47.540;19.088;2024-02-21T01:58:02;7.55;;;2.40;;
75971;SDS011;64651;47.540;19.088;2024-02-21T02:03:05;6.80;;;1.70;;
75971;SDS011;64651;47.540;19.088;2024-02-21T02:08:08;6.83;;;2.10;;
75971;SDS011;64651;47.540;19.088;2024-02-21T02:13:11;7.80;;;2.35;;
75971;SDS011;64651;47.540;19.088;2024-02-21T02:18:14;9.30;;;2.50;;
75971;SDS011;64651;47.540;19.088;2024-02-21T02:28:29;8.82;;;2.17;;
75971;SDS011;64651;47.540;19.088;2024-02-21T02:33:31;8.40;;;2.27;;
75971;SDS011;64651;47.540;19.088;2024-02-21T02:38:33;7.90;;;2.05;;
75971;SDS011;64651;47.540;19.088;2024-02-21T02:43:35;6.03;;;1.83;;
75971;SDS011;64651;47.540;19.088;2024-02-21T02:48:38;8.50;;;2.40;;
75971;SDS011;64651;47.540;19.088;2024-02-21T02:53:41;6.68;;;2.10;;
75971;SDS011;64651;47.540;19.088;2024-02-21T02:58:43;9.73;;;2.33;;
75971;SDS011;64651;47.540;19.088;2024-02-21T03:03:46;7.25;;;2.20;;
75971;SDS011;64651;47.540;19.088;2024-02-21T03:08:49;9.53;;;2.97;;
75971;SDS011;64651;47.540;19.088;2024-02-21T03:13:52;10.43;;;2.53;;
75971;SDS011;64651;47.540;19.088;2024-02-21T03:18:54;8.25;;;2.80;;
75971;SDS011;64651;47.540;19.088;2024-02-21T03:23:56;6.33;;;2.20;;
75971;SDS011;64651;47.540;19.088;2024-02-21T03:28:58;10.05;;;2.90;;
75971;SDS011;64651;47.540;19.088;2024-02-21T03:34:01;8.17;;;2.50;;
75971;SDS011;64651;47.540;19.088;2024-02-21T03:39:03;9.20;;;3.33;;
75971;SDS011;64651;47.540;19.088;2024-02-21T03:44:05;9.45;;;2.80;;
75971;SDS011;64651;47.540;19.088;2024-02-21T03:49:07;7.40;;;2.50;;
75971;SDS011;64651;47.540;19.088;2024-02-21T03:54:10;10.43;;;2.87;;
75971;SDS011;64651;47.540;19.088;2024-02-21T03:59:12;8.73;;;2.60;;
75971;SDS011;64651;47.540;19.088;2024-02-21T04:04:14;11.60;;;3.28;;
75971;SDS011;64651;47.540;19.088;2024-02-21T04:09:16;10.35;;;3.10;;
75971;SDS011;64651;47.540;19.088;2024-02-21T04:14:19;9.07;;;3.40;;
75971;SDS011;64651;47.540;19.088;2024-02-21T04:19:21;12.10;;;3.50;;
75971;SDS011;64651;47.540;19.088;2024-02-21T04:24:23;8.57;;;3.43;;
75971;SDS011;64651;47.540;19.088;2024-02-21T04:29:25;10.40;;;3.58;;
75971;SDS011;64651;47.540;19.088;2024-02-21T04:34:29;9.80;;;3.55;;
75971;SDS011;64651;47.540;19.088;2024-02-21T04:39:32;12.00;;;4.20;;
75971;SDS011;64651;47.540;19.088;2024-02-21T04:44:34;12.13;;;4.40;;
75971;SDS011;64651;47.540;19.088;2024-02-21T04:49:38;10.20;;;4.00;;
75971;SDS011;64651;47.540;19.088;2024-02-21T04:54:40;8.77;;;3.42;;
75971;SDS011;64651;47.540;19.088;2024-02-21T04:59:48;10.63;;;4.37;;
75971;SDS011;64651;47.540;19.088;2024-02-21T05:04:51;18.63;;;5.40;;
75971;SDS011;64651;47.540;19.088;2024-02-21T05:09:53;11.57;;;4.68;;
75971;SDS011;64651;47.540;19.088;2024-02-21T05:14:55;11.50;;;4.87;;
75971;SDS011;64651;47.540;19.088;2024-02-21T05:19:58;10.98;;;3.95;;
75971;SDS011;64651;47.540;19.088;2024-02-21T05:25:00;11.65;;;3.97;;
75971;SDS011;64651;47.540;19.088;2024-02-21T05:30:03;9.93;;;4.13;;
75971;SDS011;64651;47.540;19.088;2024-02-21T05:35:07;10.65;;;3.83;;
75971;SDS011;64651;47.540;19.088;2024-02-21T05:40:10;10.20;;;3.73;;
75971;SDS011;64651;47.540;19.088;2024-02-21T05:45:15;13.48;;;4.53;;
75971;SDS011;64651;47.540;19.088;2024-02-21T05:50:17;10.38;;;3.80;;
75971;SDS011;64651;47.540;19.088;2024-02-21T05:55:19;11.47;;;4.00;;
75971;SDS011;64651;47.540;19.088;2024-02-21T06:00:22;12.40;;;4.30;;
75971;SDS011;64651;47.540;19.088;2024-02-21T06:05:24;15.20;;;4.30;;
75971;SDS011;64651;47.540;19.088;2024-02-21T06:10:26;11.10;;;3.78;;
75971;SDS011;64651;47.540;19.088;2024-02-21T06:15:28;10.60;;;3.92;;
75971;SDS011;64651;47.540;19.088;2024-02-21T06:20:31;10.03;;;3.90;;
75971;SDS011;64651;47.540;19.088;2024-02-21T06:25:33;11.55;;;4.32;;
75971;SDS011;64651;47.540;19.088;2024-02-21T06:30:35;10.77;;;3.80;;
75971;SDS011;64651;47.540;19.088;2024-02-21T06:35:38;10.82;;;3.62;;
75971;SDS011;64651;47.540;19.088;2024-02-21T06:40:42;10.73;;;3.90;;
75971;SDS011;64651;47.540;19.088;2024-02-21T06:45:50;11.70;;;3.77;;
75971;SDS011;64651;47.540;19.088;2024-02-21T06:50:53;11.27;;;3.95;;
75971;SDS011;64651;47.540;19.088;2024-02-21T06:55:55;11.17;;;3.83;;
75971;SDS011;64651;47.540;19.088;2024-02-21T07:01:08;12.18;;;4.05;;
75971;SDS011;64651;47.540;19.088;2024-02-21T07:06:11;12.00;;;3.80;;
75971;SDS011;64651;47.540;19.088;2024-02-21T07:11:14;12.53;;;4.23;;
75971;SDS011;64651;47.540;19.088;2024-02-21T07:16:16;12.57;;;4.18;;
75971;SDS011;64651;47.540;19.088;2024-02-21T07:21:19;12.17;;;3.90;;
75971;SDS011;64651;47.540;19.088;2024-02-21T07:26:21;10.50;;;3.22;;
75971;SDS011;64651;47.540;19.088;2024-02-21T07:31:24;10.27;;;3.12;;
75971;SDS011;64651;47.540;19.088;2024-02-21T07:36:29;13.13;;;3.40;;
75971;SDS011;64651;47.540;19.088;2024-02-21T07:41:34;9.27;;;3.25;;
75971;SDS011;64651;47.540;19.088;2024-02-21T07:46:36;8.97;;;3.03;;
75971;SDS011;64651;47.540;19.088;2024-02-21T07:51:38;10.55;;;3.30;;
75971;SDS011;64651;47.540;19.088;2024-02-21T07:56:41;13.52;;;3.85;;
75971;SDS011;64651;47.540;19.088;2024-02-21T08:01:43;9.60;;;2.80;;
75971;SDS011;64651;47.540;19.088;2024-02-21T08:06:50;10.93;;;2.95;;
75971;SDS011;64651;47.540;19.088;2024-02-21T08:11:55;13.60;;;3.77;;
75971;SDS011;64651;47.540;19.088;2024-02-21T08:16:57;11.15;;;4.00;;
75971;SDS011;64651;47.540;19.088;2024-02-21T08:22:01;11.40;;;3.08;;
75971;SDS011;64651;47.540;19.088;2024-02-21T08:27:05;8.93;;;2.60;;
75971;SDS011;64651;47.540;19.088;2024-02-21T08:32:07;9.73;;;3.03;;
75971;SDS011;64651;47.540;19.088;2024-02-21T08:37:10;10.07;;;3.10;;
75971;SDS011;64651;47.540;19.088;2024-02-21T08:42:12;10.68;;;2.83;;
75971;SDS011;64651;47.540;19.088;2024-02-21T08:47:15;9.70;;;2.83;;
75971;SDS011;64651;47.540;19.088;2024-02-21T08:52:17;10.47;;;2.67;;
75971;SDS011;64651;47.540;19.088;2024-02-21T08:57:19;9.25;;;2.53;;
75971;SDS011;64651;47.540;19.088;2024-02-21T09:02:22;10.13;;;3.07;;
75971;SDS011;64651;47.540;19.088;2024-02-21T09:07:25;10.35;;;2.35;;
75971;SDS011;64651;47.540;19.088;2024-02-21T09:12:27;10.95;;;2.75;;
75971;SDS011;64651;47.540;19.088;2024-02-21T09:17:29;8.13;;;2.50;;
75971;SDS011;64651;47.540;19.088;2024-02-21T09:22:32;6.97;;;2.00;;
75971;SDS011;64651;47.540;19.088;2024-02-21T09:27:36;12.70;;;2.70;;
75971;SDS011;64651;47.540;19.088;2024-02-21T09:32:39;11.77;;;3.10;;
75971;SDS011;64651;47.540;19.088;2024-02-21T09:37:42;8.25;;;2.55;;
75971;SDS011;64651;47.540;19.088;2024-02-21T09:42:44;10.13;;;2.60;;
75971;SDS011;64651;47.540;19.088;2024-02-21T09:47:57;8.75;;;2.45;;
75971;SDS011;64651;47.540;19.088;2024-02-21T09:53:27;9.70;;;2.33;;
75971;SDS011;64651;47.540;19.088;2024-02-21T09:58:30;9.38;;;2.42;;
75971;SDS011;64651;47.540;19.088;2024-02-21T10:03:33;9.27;;;2.62;;
75971;SDS011;64651;47.540;19.088;2024-02-21T10:08:35;11.47;;;2.97;;
75971;SDS011;64651;47.540;19.088;2024-02-21T10:13:38;10.18;;;2.80;;
75971;SDS011;64651;47.540;19.088;2024-02-21T10:18:40;10.83;;;3.83;;
75971;SDS011;64651;47.540;19.088;2024-02-21T10:23:46;9.02;;;3.35;;
75971;SDS011;64651;47.540;19.088;2024-02-21T10:28:50;8.85;;;3.83;;
75971;SDS011;64651;47.540;19.088;2024-02-21T10:33:58;11.03;;;3.83;;
75971;SDS011;64651;47.540;19.088;2024-02-21T10:39:02;13.02;;;4.00;;
75971;SDS011;64651;47.540;19.088;2024-02-21T10:44:05;11.60;;;3.67;;
75971;SDS011;64651;47.540;19.088;2024-02-21T10:49:10;8.63;;;3.17;;
75971;SDS011;64651;47.540;19.088;2024-02-21T10:59:31;10.67;;;3.20;;
75971;SDS011;64651;47.540;19.088;2024-02-21T11:04:34;10.52;;;3.80;;
75971;SDS011;64651;47.540;19.088;2024-02-21T11:09:38;9.60;;;3.70;;
75971;SDS011;64651;47.540;19.088;2024-02-21T11:14:41;9.52;;;3.72;;
75971;SDS011;64651;47.540;19.088;2024-02-21T11:19:44;11.50;;;4.15;;
75971;SDS011;64651;47.540;19.088;2024-02-21T11:24:47;11.83;;;4.27;;
75971;SDS011;64651;47.540;19.088;2024-02-21T11:29:54;10.23;;;3.67;;
75971;SDS011;64651;47.540;19.088;2024-02-21T11:35:01;9.83;;;4.43;;
75971;SDS011;64651;47.540;19.088;2024-02-21T11:40:07;10.07;;;3.92;;
75971;SDS011;64651;47.540;19.088;2024-02-21T11:45:14;10.70;;;3.92;;
75971;SDS011;64651;47.540;19.088;2024-02-21T11:50:17;10.60;;;3.77;;
75971;SDS011;64651;47.540;19.088;2024-02-21T11:55:23;11.05;;;3.65;;
75971;SDS011;64651;47.540;19.088;2024-02-21T12:00:25;10.37;;;3.83;;
75971;SDS011;64651;47.540;19.088;2024-02-21T12:05:28;9.88;;;3.67;;
75971;SDS011;64651;47.540;19.088;2024-02-21T12:10:31;11.77;;;3.58;;
75971;SDS011;64651;47.540;19.088;2024-02-21T12:15:33;10.27;;;3.70;;
75971;SDS011;64651;47.540;19.088;2024-02-21T12:20:36;11.82;;;3.45;;
75971;SDS011;64651;47.540;19.088;2024-02-21T12:25:38;10.70;;;3.00;;
75971;SDS011;64651;47.540;19.088;2024-02-21T12:30:41;10.63;;;3.40;;
75971;SDS011;64651;47.540;19.088;2024-02-21T12:35:44;8.65;;;2.67;;
75971;SDS011;64651;47.540;19.088;2024-02-21T12:40:47;8.43;;;2.50;;
75971;SDS011;64651;47.540;19.088;2024-02-21T12:45:49;8.27;;;2.67;;
75971;SDS011;64651;47.540;19.088;2024-02-21T12:50:51;11.70;;;2.97;;
75971;SDS011;64651;47.540;19.088;2024-02-21T12:55:54;10.98;;;3.08;;
75971;SDS011;64651;47.540;19.088;2024-02-21T13:00:56;9.55;;;2.75;;
75971;SDS011;64651;47.540;19.088;2024-02-21T13:05:58;10.93;;;2.60;;
75971;SDS011;64651;47.540;19.088;2024-02-21T13:11:01;10.90;;;2.42;;
75971;SDS011;64651;47.540;19.088;2024-02-21T13:16:03;10.17;;;2.53;;
75971;SDS011;64651;47.540;19.088;2024-02-21T13:21:06;10.63;;;2.83;;
75971;SDS011;64651;47.540;19.088;2024-02-21T13:26:08;9.68;;;2.70;;
75971;SDS011;64651;47.540;19.088;2024-02-21T13:31:12;9.67;;;3.00;;
75971;SDS011;64651;47.540;19.088;2024-02-21T13:36:14;10.57;;;2.83;;
75971;SDS011;64651;47.540;19.088;2024-02-21T13:41:16;10.77;;;3.20;;
75971;SDS011;64651;47.540;19.088;2024-02-21T13:46:19;11.75;;;3.50;;
75971;SDS011;64651;47.540;19.088;2024-02-21T13:51:21;9.52;;;2.45;;
75971;SDS011;64651;47.540;19.088;2024-02-21T13:56:24;7.47;;;2.43;;
75971;SDS011;64651;47.540;19.088;2024-02-21T14:01:26;7.62;;;2.58;;
75971;SDS011;64651;47.540;19.088;2024-02-21T14:06:30;9.90;;;2.63;;
75971;SDS011;64651;47.540;19.088;2024-02-21T14:11:33;11.70;;;3.30;;
75971;SDS011;64651;47.540;19.088;2024-02-21T14:16:35;9.10;;;2.83;;
75971;SDS011;64651;47.540;19.088;2024-02-21T14:21:37;11.83;;;2.60;;
75971;SDS011;64651;47.540;19.088;2024-02-21T14:26:40;9.23;;;2.75;;
75971;SDS011;64651;47.540;19.088;2024-02-21T14:31:43;11.50;;;2.40;;
75971;SDS011;64651;47.540;19.088;2024-02-21T14:36:45;9.45;;;2.30;;
75971;SDS011;64651;47.540;19.088;2024-02-21T14:41:47;8.07;;;2.28;;
75971;SDS011;64651;47.540;19.088;2024-02-21T14:46:49;9.37;;;2.30;;
75971;SDS011;64651;47.540;19.088;2024-02-21T14:51:52;8.80;;;1.77;;
75971;SDS011;64651;47.540;19.088;2024-02-21T14:56:54;9.10;;;2.17;;
75971;SDS011;64651;47.540;19.088;2024-02-21T15:01:56;11.30;;;2.30;;
75971;SDS011;64651;47.540;19.088;2024-02-21T15:06:58;8.65;;;1.80;;
75971;SDS011;64651;47.540;19.088;2024-02-21T15:12:01;6.40;;;1.73;;
75971;SDS011;64651;47.540;19.088;2024-02-21T15:17:04;7.82;;;1.92;;
75971;SDS011;64651;47.540;19.088;2024-02-21T15:22:06;9.43;;;2.07;;
75971;SDS011;64651;47.540;19.088;2024-02-21T15:27:08;10.32;;;2.30;;
75971;SDS011;64651;47.540;19.088;2024-02-21T15:32:11;9.50;;;2.00;;
75971;SDS011;64651;47.540;19.088;2024-02-21T15:37:13;12.93;;;2.00;;
75971;SDS011;64651;47.540;19.088;2024-02-21T15:42:19;9.20;;;2.62;;
75971;SDS011;64651;47.540;19.088;2024-02-21T15:47:22;13.57;;;2.20;;
75971;SDS011;64651;47.540;19.088;2024-02-21T15:52:25;8.52;;;1.75;;
75971;SDS011;64651;47.540;19.088;2024-02-21T15:57:28;8.63;;;2.00;;
75971;SDS011;64651;47.540;19.088;2024-02-21T16:02:30;8.30;;;2.07;;
75971;SDS011;64651;47.540;19.088;2024-02-21T16:07:33;8.98;;;2.20;;
75971;SDS011;64651;47.540;19.088;2024-02-21T16:12:35;9.07;;;2.10;;
75971;SDS011;64651;47.540;19.088;2024-02-21T16:17:40;6.87;;;1.60;;
75971;SDS011;64651;47.540;19.088;2024-02-21T16:22:43;9.35;;;1.80;;
75971;SDS011;64651;47.540;19.088;2024-02-21T16:27:47;10.27;;;1.50;;
75971;SDS011;64651;47.540;19.088;2024-02-21T16:32:49;8.95;;;2.12;;
75971;SDS011;64651;47.540;19.088;2024-02-21T16:37:55;9.10;;;2.37;;
75971;SDS011;64651;47.540;19.088;2024-02-21T16:43:00;9.40;;;1.92;;
75971;SDS011;64651;47.540;19.088;2024-02-21T16:48:04;9.38;;;2.30;;
75971;SDS011;64651;47.540;19.088;2024-02-21T16:53:07;8.47;;;2.10;;
75971;SDS011;64651;47.540;19.088;2024-02-21T16:58:12;11.75;;;2.20;;
75971;SDS011;64651;47.540;19.088;2024-02-21T17:03:21;11.13;;;2.60;;
75971;SDS011;64651;47.540;19.088;2024-02-21T17:08:32;10.55;;;2.45;;
75971;SDS011;64651;47.540;19.088;2024-02-21T17:13:34;9.82;;;2.55;;
75971;SDS011;64651;47.540;19.088;2024-02-21T17:18:52;10.30;;;2.90;;
75971;SDS011;64651;47.540;19.088;2024-02-21T17:23:55;9.13;;;2.92;;
75971;SDS011;64651;47.540;19.088;2024-02-21T17:28:57;9.27;;;3.00;;
75971;SDS011;64651;47.540;19.088;2024-02-21T17:34:00;11.07;;;2.80;;
75971;SDS011;64651;47.540;19.088;2024-02-21T17:39:04;8.65;;;2.37;;
75971;SDS011;64651;47.540;19.088;2024-02-21T17:44:06;9.47;;;2.60;;
75971;SDS011;64651;47.540;19.088;2024-02-21T17:49:10;10.25;;;3.22;;
75971;SDS011;64651;47.540;19.088;2024-02-21T17:54:12;12.00;;;3.60;;
75971;SDS011;64651;47.540;19.088;2024-02-21T17:59:16;10.73;;;3.12;;
75971;SDS011;64651;47.540;19.088;2024-02-21T18:04:21;12.20;;;2.97;;
75971;SDS011;64651;47.540;19.088;2024-02-21T18:09:23;9.67;;;3.17;;
75971;SDS011;64651;47.540;19.088;2024-02-21T18:14:25;8.40;;;2.92;;
75971;SDS011;64651;47.540;19.088;2024-02-21T18:19:27;8.70;;;2.90;;
75971;SDS011;64651;47.540;19.088;2024-02-21T18:24:29;11.77;;;3.62;;
75971;SDS011;64651;47.540;19.088;2024-02-21T18:29:32;10.48;;;3.67;;
75971;SDS011;64651;47.540;19.088;2024-02-21T18:34:40;13.87;;;4.10;;
75971;SDS011;64651;47.540;19.088;2024-02-21T18:39:43;12.93;;;4.72;;
75971;SDS011;64651;47.540;19.088;2024-02-21T18:44:45;12.83;;;4.37;;
75971;SDS011;64651;47.540;19.088;2024-02-21T18:49:49;14.90;;;4.30;;
75971;SDS011;64651;47.540;19.088;2024-02-21T18:54:51;12.15;;;4.57;;
75971;SDS011;64651;47.540;19.088;2024-02-21T18:59:54;14.77;;;5.23;;
75971;SDS011;64651;47.540;19.088;2024-02-21T19:04:56;16.70;;;5.68;;
75971;SDS011;64651;47.540;19.088;2024-02-21T19:09:58;14.07;;;5.63;;
75971;SDS011;64651;47.540;19.088;2024-02-21T19:15:01;18.92;;;5.85;;
75971;SDS011;64651;47.540;19.088;2024-02-21T19:20:05;16.60;;;6.40;;
75971;SDS011;64651;47.540;19.088;2024-02-21T19:25:07;20.03;;;6.83;;
75971;SDS011;64651;47.540;19.088;2024-02-21T19:30:14;20.77;;;8.52;;
75971;SDS011;64651;47.540;19.088;2024-02-21T19:35:18;20.53;;;8.30;;
75971;SDS011;64651;47.540;19.088;2024-02-21T19:40:21;22.52;;;8.20;;
75971;SDS011;64651;47.540;19.088;2024-02-21T19:45:26;19.33;;;9.25;;
75971;SDS011;64651;47.540;19.088;2024-02-21T19:50:28;22.07;;;9.73;;
75971;SDS011;64651;47.540;19.088;2024-02-21T19:55:35;23.95;;;10.20;;
75971;SDS011;64651;47.540;19.088;2024-02-21T20:00:37;23.63;;;9.80;;
75971;SDS011;64651;47.540;19.088;2024-02-21T20:05:39;28.73;;;8.68;;
75971;SDS011;64651;47.540;19.088;2024-02-21T20:10:45;20.62;;;8.68;;
75971;SDS011;64651;47.540;19.088;2024-02-21T20:15:48;22.37;;;8.33;;
75971;SDS011;64651;47.540;19.088;2024-02-21T20:20:50;20.02;;;8.50;;
75971;SDS011;64651;47.540;19.088;2024-02-21T20:25:53;19.00;;;7.07;;
75971;SDS011;64651;47.540;19.088;2024-02-21T20:30:57;19.30;;;8.38;;
75971;SDS011;64651;47.540;19.088;2024-02-21T20:35:59;19.02;;;7.37;;
75971;SDS011;64651;47.540;19.088;2024-02-21T20:41:01;20.73;;;7.97;;
75971;SDS011;64651;47.540;19.088;2024-02-21T20:46:04;18.58;;;7.90;;
75971;SDS011;64651;47.540;19.088;2024-02-21T20:51:06;19.97;;;8.50;;
75971;SDS011;64651;47.540;19.088;2024-02-21T20:56:09;17.48;;;7.50;;
75971;SDS011;64651;47.540;19.088;2024-02-21T21:01:12;19.42;;;7.20;;
75971;SDS011;64651;47.540;19.088;2024-02-21T21:06:15;22.53;;;7.03;;
75971;SDS011;64651;47.540;19.088;2024-02-21T21:11:17;19.00;;;7.12;;
75971;SDS011;64651;47.540;19.088;2024-02-21T21:16:23;20.27;;;7.10;;
75971;SDS011;64651;47.540;19.088;2024-02-21T21:21:26;18.30;;;7.22;;
75971;SDS011;64651;47.540;19.088;2024-02-21T21:26:28;20.77;;;7.82;;
75971;SDS011;64651;47.540;19.088;2024-02-21T21:31:30;21.53;;;7.97;;
75971;SDS011;64651;47.540;19.088;2024-02-21T21:36:32;19.77;;;8.10;;
75971;SDS011;64651;47.540;19.088;2024-02-21T21:41:34;20.37;;;8.10;;
75971;SDS011;64651;47.540;19.088;2024-02-21T21:46:37;18.35;;;7.00;;
75971;SDS011;64651;47.540;19.088;2024-02-21T21:51:41;14.38;;;6.12;;
75971;SDS011;64651;47.540;19.088;2024-02-21T21:56:43;16.77;;;7.10;;
75971;SDS011;64651;47.540;19.088;2024-02-21T22:01:45;17.80;;;7.25;;
75971;SDS011;64651;47.540;19.088;2024-02-21T22:06:48;18.00;;;7.07;;
75971;SDS011;64651;47.540;19.088;2024-02-21T22:11:50;17.65;;;7.28;;
75971;SDS011;64651;47.540;19.088;2024-02-21T22:16:52;16.58;;;6.18;;
75971;SDS011;64651;47.540;19.088;2024-02-21T22:21:55;14.50;;;5.60;;
75971;SDS011;64651;47.540;19.088;2024-02-21T22:26:57;17.52;;;5.80;;
75971;SDS011;64651;47.540;19.088;2024-02-21T22:32:01;17.13;;;6.67;;
75971;SDS011;64651;47.540;19.088;2024-02-21T22:37:03;14.13;;;5.50;;
75971;SDS011;64651;47.540;19.088;2024-02-21T22:42:06;15.02;;;6.22;;
75971;SDS011;64651;47.540;19.088;2024-02-21T22:47:10;14.50;;;6.20;;
75971;SDS011;64651;47.540;19.088;2024-02-21T22:52:12;16.50;;;6.78;;
75971;SDS011;64651;47.540;19.088;2024-02-21T22:57:14;17.70;;;6.77;;
75971;SDS011;64651;47.540;19.088;2024-02-21T23:02:16;15.90;;;6.47;;
75971;SDS011;64651;47.540;19.088;2024-02-21T23:07:19;17.17;;;7.18;;
75971;SDS011;64651;47.540;19.088;2024-02-21T23:12:21;18.37;;;6.50;;
75971;SDS011;64651;47.540;19.088;2024-02-21T23:17:24;16.23;;;6.43;;
75971;SDS011;64651;47.540;19.088;2024-02-21T23:22:26;17.57;;;6.07;;
75971;SDS011;64651;47.540;19.088;2024-02-21T23:27:29;13.77;;;5.57;;
75971;SDS011;64651;47.540;19.088;2024-02-21T23:32:31;15.30;;;6.30;;
75971;SDS011;64651;47.540;19.088;2024-02-21T23:37:33;14.87;;;6.17;;
75971;SDS011;64651;47.540;19.088;2024-02-21T23:42:37;15.15;;;5.90;;
75971;SDS011;64651;47.540;19.088;2024-02-21T23:47:40;15.57;;;6.03;;
75971;SDS011;64651;47.540;19.088;2024-02-21T23:52:43;16.95;;;6.68;;
75971;SDS011;64651;47.540;19.088;2024-02-21T23:57:47;15.27;;;5.90;;
